createdAt,value
2018-12-12T00:00:06.627Z,4.71
2018-12-12T00:02:34.784Z,4.76
2018-12-12T00:05:03.169Z,4.72
2018-12-12T00:07:31.456Z,4.75
2018-12-12T00:09:59.653Z,4.61
2018-12-12T00:12:27.746Z,4.68
2018-12-12T00:14:56.051Z,4.66
2018-12-12T00:17:25.335Z,4.65
2018-12-12T00:19:53.646Z,4.77
2018-12-12T00:22:21.712Z,4.71
2018-12-12T00:24:50.286Z,4.65
2018-12-12T00:27:18.596Z,4.66
2018-12-12T00:29:46.720Z,4.37
2018-12-12T00:32:15.019Z,4.35
2018-12-12T00:34:43.142Z,4.24
2018-12-12T00:37:11.540Z,4.15
2018-12-12T00:39:39.838Z,4.09
2018-12-12T00:42:08.182Z,4.11
2018-12-12T00:44:36.354Z,4.08
2018-12-12T00:47:05.138Z,4.08
2018-12-12T00:49:33.466Z,3.95
2018-12-12T00:52:01.640Z,4.11
2018-12-12T00:54:30.501Z,4.19
2018-12-12T00:56:58.780Z,4.24
2018-12-12T00:59:27.012Z,4.38
2018-12-12T01:01:55.380Z,4.39
2018-12-12T01:04:23.644Z,4.37
2018-12-12T01:06:51.752Z,4.23
2018-12-12T01:09:19.842Z,4.23
2018-12-12T01:11:53.526Z,4.22
2018-12-12T01:14:21.690Z,4.31
2018-12-12T01:16:50.012Z,4.34
2018-12-12T01:19:18.144Z,4.39
2018-12-12T01:21:46.328Z,4.36
2018-12-12T01:24:14.441Z,4.31
2018-12-12T01:26:42.749Z,4.46
2018-12-12T01:29:10.893Z,4.45
2018-12-12T01:31:39.139Z,4.42
2018-12-12T01:34:07.405Z,4.45
2018-12-12T01:36:35.451Z,4.54
2018-12-12T01:39:06.210Z,4.34
2018-12-12T01:41:34.595Z,4.38
2018-12-12T01:44:02.807Z,4.46
2018-12-12T01:46:30.990Z,4.50
2018-12-12T01:48:59.117Z,4.51
2018-12-12T01:51:27.283Z,4.52
2018-12-12T01:53:55.441Z,4.57
2018-12-12T01:56:23.699Z,4.41
2018-12-12T01:58:51.773Z,4.47
2018-12-12T02:01:20.092Z,4.54
2018-12-12T02:03:48.196Z,4.62
2018-12-12T02:06:16.292Z,4.40
2018-12-12T02:08:46.248Z,4.46
2018-12-12T02:11:14.732Z,4.44
2018-12-12T02:13:42.847Z,4.31
2018-12-12T02:16:11.148Z,4.39
2018-12-12T02:18:42.204Z,4.62
2018-12-12T02:21:10.437Z,4.49
2018-12-12T02:23:38.544Z,4.30
2018-12-12T02:26:06.635Z,4.25
2018-12-12T02:28:34.944Z,3.91
2018-12-12T02:31:03.173Z,3.75
2018-12-12T02:33:31.484Z,3.68
2018-12-12T02:35:59.775Z,3.89
2018-12-12T02:38:27.895Z,3.99
2018-12-12T02:40:56.686Z,4.04
2018-12-12T02:43:25.305Z,4.08
2018-12-12T02:45:53.414Z,4.21
2018-12-12T02:48:21.752Z,4.22
2018-12-12T02:50:49.898Z,4.28
2018-12-12T02:53:18.179Z,4.32
2018-12-12T02:55:46.906Z,4.24
2018-12-12T02:58:15.244Z,4.26
2018-12-12T03:00:43.468Z,4.38
2018-12-12T03:03:11.754Z,4.35
2018-12-12T03:05:40.502Z,4.24
2018-12-12T03:08:08.930Z,4.22
2018-12-12T03:10:37.015Z,4.23
2018-12-12T03:13:05.260Z,4.17
2018-12-12T03:15:33.485Z,4.14
2018-12-12T03:18:01.799Z,3.97
2018-12-12T03:20:30.074Z,3.75
2018-12-12T03:22:58.201Z,3.69
2018-12-12T03:25:26.364Z,3.59
2018-12-12T03:27:54.467Z,3.67
2018-12-12T03:30:22.684Z,3.64
2018-12-12T03:32:50.991Z,3.77
2018-12-12T03:35:19.112Z,3.84
2018-12-12T03:37:47.312Z,4.07
2018-12-12T03:40:15.661Z,4.09
2018-12-12T03:42:44.650Z,4.26
2018-12-12T03:45:12.747Z,4.36
2018-12-12T03:47:40.921Z,4.55
2018-12-12T03:50:09.404Z,4.37
2018-12-12T03:52:37.722Z,4.41
2018-12-12T03:55:06.497Z,4.47
2018-12-12T03:57:34.629Z,4.43
2018-12-12T04:00:03.070Z,4.44
2018-12-12T04:02:32.069Z,4.42
2018-12-12T04:05:00.192Z,4.32
2018-12-12T04:07:29.448Z,4.23
2018-12-12T04:09:57.899Z,4.35
2018-12-12T04:12:26.685Z,4.41
2018-12-12T04:14:54.835Z,4.30
2018-12-12T04:17:24.166Z,4.31
2018-12-12T04:19:52.946Z,4.35
2018-12-12T04:22:22.210Z,4.45
2018-12-12T04:24:51.315Z,4.51
2018-12-12T04:27:20.348Z,4.44
2018-12-12T04:29:48.695Z,4.49
2018-12-12T04:32:16.791Z,4.46
2018-12-12T04:34:45.073Z,4.55
2018-12-12T04:37:13.309Z,4.51
2018-12-12T04:39:41.632Z,4.52
2018-12-12T04:42:09.996Z,4.52
2018-12-12T04:44:38.327Z,4.55
2018-12-12T04:47:06.511Z,4.43
2018-12-12T04:49:34.810Z,4.34
2018-12-12T04:52:02.998Z,4.24
2018-12-12T04:54:32.166Z,4.19
2018-12-12T04:57:00.871Z,4.25
2018-12-12T04:59:29.834Z,4.10
2018-12-12T05:01:58.911Z,4.07
2018-12-12T05:04:27.257Z,4.05
2018-12-12T05:06:55.419Z,4.20
2018-12-12T05:09:24.398Z,4.08
2018-12-12T05:11:53.648Z,4.19
2018-12-12T05:14:21.897Z,4.20
2018-12-12T05:16:50.053Z,4.17
2018-12-12T05:19:18.954Z,4.06
2018-12-12T05:21:47.062Z,4.00
2018-12-12T05:24:15.787Z,3.91
2018-12-12T05:26:44.074Z,4.01
2018-12-12T05:29:12.176Z,4.04
2018-12-12T05:31:40.542Z,3.96
2018-12-12T05:34:08.888Z,4.03
2018-12-12T05:36:37.064Z,3.97
2018-12-12T05:39:06.923Z,3.94
2018-12-12T05:41:35.191Z,3.91
2018-12-12T05:44:03.612Z,3.82
2018-12-12T05:46:31.927Z,3.88
2018-12-12T05:49:00.802Z,3.88
2018-12-12T05:51:28.963Z,3.98
2018-12-12T05:53:57.281Z,4.06
2018-12-12T05:56:25.491Z,3.97
2018-12-12T05:58:53.881Z,3.98
2018-12-12T06:01:22.124Z,4.00
2018-12-12T06:03:50.314Z,3.92
2018-12-12T06:06:18.501Z,3.97
2018-12-12T06:08:46.696Z,4.04
2018-12-12T06:11:14.793Z,4.16
2018-12-12T06:13:42.934Z,4.03
2018-12-12T06:16:11.225Z,4.07
2018-12-12T06:18:39.422Z,4.00
2018-12-12T06:21:07.487Z,3.88
2018-12-12T06:23:35.656Z,4.05
2018-12-12T06:26:03.853Z,3.98
2018-12-12T06:28:33.120Z,3.83
2018-12-12T06:31:02.203Z,3.85
2018-12-12T06:33:30.327Z,3.91
2018-12-12T06:35:58.935Z,3.78
2018-12-12T06:38:28.065Z,3.83
2018-12-12T06:40:56.845Z,3.79
2018-12-12T06:43:25.820Z,3.79
2018-12-12T06:45:53.909Z,3.83
2018-12-12T06:48:22.787Z,3.80
2018-12-12T06:50:51.525Z,3.76
2018-12-12T06:53:20.228Z,3.70
2018-12-12T06:55:48.376Z,3.72
2018-12-12T06:58:16.421Z,3.66
2018-12-12T07:00:44.927Z,3.82
2018-12-12T07:03:13.048Z,3.94
2018-12-12T07:05:41.507Z,3.99
2018-12-12T07:08:09.648Z,4.01
2018-12-12T07:10:37.797Z,3.96
2018-12-12T07:13:05.906Z,3.92
2018-12-12T07:15:34.049Z,3.91
2018-12-12T07:18:02.248Z,4.03
2018-12-12T07:20:30.508Z,4.15
2018-12-12T07:22:59.728Z,4.04
2018-12-12T07:25:27.952Z,3.95
2018-12-12T07:27:56.100Z,4.04
2018-12-12T07:30:25.095Z,3.94
2018-12-12T07:32:53.190Z,3.83
2018-12-12T07:35:21.342Z,3.82
2018-12-12T07:37:49.680Z,3.78
2018-12-12T07:40:17.790Z,3.81
2018-12-12T07:42:45.912Z,3.76
2018-12-12T07:45:14.167Z,3.79
2018-12-12T07:47:42.435Z,3.81
2018-12-12T07:50:11.519Z,3.79
2018-12-12T07:52:40.626Z,3.83
2018-12-12T07:55:08.898Z,3.86
2018-12-12T07:57:37.069Z,3.88
2018-12-12T08:00:06.329Z,3.93
2018-12-12T08:02:34.482Z,3.92
2018-12-12T08:05:02.753Z,3.98
2018-12-12T08:07:30.933Z,4.06
2018-12-12T08:09:59.103Z,4.08
2018-12-12T08:12:27.413Z,4.12
2018-12-12T08:14:55.620Z,4.03
2018-12-12T08:17:24.473Z,4.06
2018-12-12T08:19:52.595Z,4.07
2018-12-12T08:22:20.705Z,4.03
2018-12-12T08:24:48.916Z,4.09
2018-12-12T08:27:17.236Z,4.23
2018-12-12T08:29:45.451Z,4.31
2018-12-12T08:32:13.768Z,4.26
2018-12-12T08:34:41.922Z,4.37
2018-12-12T08:37:10.183Z,4.38
2018-12-12T08:39:38.381Z,4.31
2018-12-12T08:42:06.557Z,4.43
2018-12-12T08:44:34.716Z,4.43
2018-12-12T08:47:03.062Z,4.48
2018-12-12T08:49:31.198Z,4.48
2018-12-12T08:51:59.312Z,4.37
2018-12-12T08:54:27.475Z,4.31
2018-12-12T08:56:56.391Z,4.26
2018-12-12T08:59:24.788Z,4.29
2018-12-12T09:01:52.946Z,4.29
2018-12-12T09:04:21.274Z,4.31
2018-12-12T09:06:49.670Z,4.30
2018-12-12T09:09:17.906Z,4.48
2018-12-12T09:11:46.312Z,4.58
2018-12-12T09:14:14.562Z,4.63
2018-12-12T09:16:43.611Z,4.75
2018-12-12T09:19:12.026Z,4.82
2018-12-12T09:21:40.199Z,4.93
2018-12-12T09:24:08.379Z,5.08
2018-12-12T09:26:36.494Z,5.05
2018-12-12T09:29:04.758Z,5.08
2018-12-12T09:31:32.874Z,4.96
2018-12-12T09:34:01.032Z,4.94
2018-12-12T09:36:29.334Z,4.83
2018-12-12T09:38:57.419Z,4.84
2018-12-12T09:41:25.508Z,4.72
2018-12-12T09:43:53.819Z,4.62
2018-12-12T09:46:22.019Z,4.65
2018-12-12T09:48:50.147Z,4.61
2018-12-12T09:51:18.299Z,4.63
2018-12-12T09:53:48.604Z,4.68
2018-12-12T09:56:16.829Z,4.74
2018-12-12T09:58:45.049Z,4.80
2018-12-12T10:01:13.265Z,4.81
2018-12-12T10:03:41.435Z,4.80
2018-12-12T10:06:09.596Z,4.81
2018-12-12T10:08:37.811Z,4.84
2018-12-12T10:11:05.954Z,5.18
2018-12-12T10:13:34.148Z,5.37
2018-12-12T10:16:03.021Z,5.35
2018-12-12T10:18:31.345Z,5.38
2018-12-12T10:20:59.480Z,5.30
2018-12-12T10:26:15.869Z,5.07
2018-12-12T10:28:44.064Z,5.05
2018-12-12T10:31:12.241Z,4.93
2018-12-12T10:33:40.392Z,5.06
2018-12-12T10:36:08.567Z,4.90
2018-12-12T10:38:36.691Z,4.93
2018-12-12T10:41:04.847Z,5.06
2018-12-12T10:43:33.079Z,5.02
2018-12-12T10:46:01.233Z,5.03
2018-12-12T10:48:29.396Z,5.35
2018-12-12T10:50:57.533Z,5.35
2018-12-12T10:53:25.746Z,5.40
2018-12-12T10:55:53.920Z,5.57
2018-12-12T10:58:22.073Z,5.68
2018-12-12T11:00:55.753Z,5.76
2018-12-12T11:03:44.213Z,5.63
2018-12-12T11:06:09.927Z,5.51
2018-12-12T11:08:38.870Z,5.45
2018-12-12T11:11:07.173Z,5.50
2018-12-12T11:13:35.259Z,5.45
2018-12-12T11:16:03.418Z,5.17
2018-12-12T11:18:31.671Z,5.01
2018-12-12T11:20:59.847Z,4.95
2018-12-12T11:23:27.959Z,5.02
2018-12-12T11:25:56.076Z,5.14
2018-12-12T11:28:24.215Z,5.14
2018-12-12T11:30:52.362Z,5.15
2018-12-12T11:33:20.608Z,5.24
2018-12-12T11:35:49.706Z,5.36
2018-12-12T11:38:17.880Z,5.34
2018-12-12T11:40:46.156Z,5.59
2018-12-12T11:43:15.162Z,5.61
2018-12-12T11:45:43.328Z,5.77
2018-12-12T11:48:11.626Z,6.25
2018-12-12T11:50:39.750Z,6.29
2018-12-12T11:53:07.892Z,6.09
2018-12-12T11:55:36.046Z,5.78
2018-12-12T11:58:04.352Z,5.72
2018-12-12T12:00:32.494Z,6.02
2018-12-12T12:03:00.671Z,5.92
2018-12-12T12:05:28.842Z,5.82
2018-12-12T12:07:56.927Z,5.75
2018-12-12T12:10:25.235Z,5.91
2018-12-12T12:13:00.372Z,5.83
2018-12-12T12:15:28.506Z,5.75
2018-12-12T12:17:56.676Z,5.53
2018-12-12T12:20:24.827Z,5.68
2018-12-12T12:22:53.990Z,5.66
2018-12-12T12:25:22.164Z,5.39
2018-12-12T12:27:50.512Z,5.57
2018-12-12T12:30:18.829Z,5.54
2018-12-12T12:32:47.016Z,5.59
2018-12-12T12:35:15.207Z,5.65
2018-12-12T12:37:46.379Z,5.69
2018-12-12T12:40:15.001Z,5.69
2018-12-12T12:42:43.417Z,5.66
2018-12-12T12:45:11.600Z,5.72
2018-12-12T12:47:39.810Z,5.61
2018-12-12T12:50:08.439Z,5.65
2018-12-12T12:52:36.626Z,5.61
2018-12-12T12:55:05.559Z,5.70
2018-12-12T12:57:34.258Z,5.73
2018-12-12T13:00:02.708Z,5.63
2018-12-12T13:02:30.881Z,5.55
2018-12-12T13:04:58.987Z,5.34
2018-12-12T13:07:27.070Z,5.23
2018-12-12T13:09:55.237Z,5.19
2018-12-12T13:12:23.476Z,5.37
2018-12-12T13:14:51.740Z,5.36
2018-12-12T13:17:19.906Z,5.41
2018-12-12T13:19:48.016Z,5.57
2018-12-12T13:22:16.213Z,5.47
2018-12-12T13:24:44.378Z,5.37
2018-12-12T13:27:12.523Z,5.42
2018-12-12T13:29:40.606Z,5.35
2018-12-12T13:32:08.739Z,5.27
2018-12-12T13:34:37.241Z,5.21
2018-12-12T13:37:05.598Z,5.35
2018-12-12T13:39:33.759Z,5.49
2018-12-12T13:42:01.896Z,5.42
2018-12-12T13:44:31.058Z,5.37
2018-12-12T13:46:59.185Z,5.30
2018-12-12T13:49:27.363Z,5.32
2018-12-12T13:51:55.557Z,5.14
2018-12-12T13:54:23.729Z,5.13
2018-12-12T13:56:51.877Z,5.32
2018-12-12T13:59:20.957Z,5.36
2018-12-12T14:01:49.777Z,5.44
2018-12-12T14:04:22.795Z,5.28
2018-12-12T14:06:48.070Z,5.31
2018-12-12T14:09:16.229Z,5.06
2018-12-12T14:11:44.483Z,5.02
2018-12-12T14:14:12.653Z,5.06
2018-12-12T14:16:41.173Z,4.90
2018-12-12T14:19:09.378Z,4.75
2018-12-12T14:21:37.635Z,4.71
2018-12-12T14:24:05.921Z,4.72
2018-12-12T14:26:34.778Z,4.75
2018-12-12T14:29:03.964Z,4.69
2018-12-12T14:31:32.108Z,4.63
2018-12-12T14:34:03.275Z,4.71
2018-12-12T14:36:31.530Z,4.52
2018-12-12T14:39:00.466Z,4.43
2018-12-12T14:41:28.618Z,4.48
2018-12-12T14:43:56.772Z,4.35
2018-12-12T14:46:25.696Z,4.25
2018-12-12T14:48:54.564Z,4.35
2018-12-12T14:51:22.852Z,4.49
2018-12-12T14:53:51.123Z,4.62
2018-12-12T14:56:19.394Z,4.68
2018-12-12T14:58:47.680Z,4.66
2018-12-12T15:01:15.866Z,4.75
2018-12-12T15:03:45.771Z,4.84
2018-12-12T15:06:14.374Z,4.80
2018-12-12T15:08:42.504Z,4.76
2018-12-12T15:11:10.661Z,4.58
2018-12-12T15:13:38.852Z,4.61
2018-12-12T15:16:07.078Z,4.71
2018-12-12T15:18:35.245Z,4.69
2018-12-12T15:21:03.605Z,4.77
2018-12-12T15:23:31.822Z,4.59
2018-12-12T15:25:59.973Z,4.46
2018-12-12T15:28:28.173Z,4.40
2018-12-12T15:30:56.348Z,4.43
2018-12-12T15:33:24.442Z,4.53
2018-12-12T15:35:52.873Z,4.71
2018-12-12T15:38:21.023Z,4.85
2018-12-12T15:40:49.166Z,4.98
2018-12-12T15:43:17.323Z,4.89
2018-12-12T15:45:45.479Z,4.75
2018-12-12T15:48:13.684Z,4.80
2018-12-12T15:50:41.785Z,4.79
2018-12-12T15:53:10.079Z,4.77
2018-12-12T15:55:38.226Z,4.74
2018-12-12T15:58:06.443Z,4.76
2018-12-12T16:00:35.917Z,4.59
2018-12-12T16:03:05.146Z,4.65
2018-12-12T16:05:33.465Z,4.55
2018-12-12T16:08:01.627Z,4.59
2018-12-12T16:10:29.890Z,4.78
2018-12-12T16:12:58.086Z,4.66
2018-12-12T16:15:26.288Z,4.68
2018-12-12T16:17:55.428Z,4.71
2018-12-12T16:20:23.588Z,4.66
2018-12-12T16:22:51.735Z,4.66
2018-12-12T16:25:19.880Z,4.67
2018-12-12T16:27:48.004Z,4.67
2018-12-12T16:30:16.226Z,4.60
2018-12-12T16:32:51.078Z,4.48
2018-12-12T16:35:19.254Z,4.52
2018-12-12T16:37:47.604Z,4.52
2018-12-12T16:40:16.426Z,4.46
2018-12-12T16:42:45.530Z,4.36
2018-12-12T16:45:13.924Z,4.28
2018-12-12T16:47:43.185Z,4.04
2018-12-12T16:50:11.720Z,4.06
2018-12-12T16:52:39.870Z,4.22
2018-12-12T16:55:08.312Z,4.18
2018-12-12T16:57:36.474Z,4.05
2018-12-12T17:00:08.178Z,3.97
2018-12-12T17:02:36.918Z,3.88
2018-12-12T17:05:05.604Z,3.99
2018-12-12T17:07:34.199Z,3.87
2018-12-12T17:10:04.602Z,3.79
2018-12-12T17:12:32.761Z,3.61
2018-12-12T17:15:01.616Z,3.56
2018-12-12T17:17:29.736Z,3.52
2018-12-12T17:19:58.061Z,3.48
2018-12-12T17:22:26.443Z,3.54
2018-12-12T17:24:54.640Z,3.44
2018-12-12T17:27:23.538Z,3.43
2018-12-12T17:29:51.710Z,3.37
2018-12-12T17:32:19.857Z,3.37
2018-12-12T17:34:47.990Z,3.37
2018-12-12T17:37:16.117Z,3.38
2018-12-12T17:39:44.277Z,3.42
2018-12-12T17:42:12.499Z,3.66
2018-12-12T17:44:40.684Z,3.71
2018-12-12T17:47:08.816Z,3.66
2018-12-12T17:49:36.979Z,3.72
2018-12-12T17:52:05.197Z,3.68
2018-12-12T17:54:33.384Z,3.72
2018-12-12T17:57:01.509Z,3.78
2018-12-12T17:59:29.652Z,3.81
2018-12-12T18:01:57.782Z,3.75
2018-12-12T18:04:26.126Z,3.81
2018-12-12T18:06:54.285Z,3.87
2018-12-12T18:09:22.342Z,3.95
2018-12-12T18:11:50.609Z,4.05
2018-12-12T18:14:18.790Z,4.17
2018-12-12T18:16:46.962Z,4.08
2018-12-12T18:19:15.127Z,4.28
2018-12-12T18:21:43.276Z,4.21
2018-12-12T18:24:11.411Z,4.16
2018-12-12T18:26:39.651Z,4.08
2018-12-12T18:29:07.899Z,3.94
2018-12-12T18:31:36.116Z,3.93
2018-12-12T18:34:04.471Z,3.87
2018-12-12T18:36:32.658Z,3.74
2018-12-12T18:39:00.863Z,3.68
2018-12-12T18:41:29.066Z,3.64
2018-12-12T18:43:57.208Z,3.61
2018-12-12T18:46:25.668Z,3.58
2018-12-12T18:48:53.882Z,3.52
2018-12-12T18:51:22.112Z,3.42
2018-12-12T18:53:50.289Z,3.27
2018-12-12T18:56:18.455Z,3.23
2018-12-12T18:58:46.696Z,3.07
2018-12-12T19:01:14.878Z,3.09
2018-12-12T19:03:43.216Z,3.00
2018-12-12T19:06:11.473Z,2.90
2018-12-12T19:08:39.636Z,2.76
2018-12-12T19:11:07.921Z,2.60
2018-12-12T19:13:36.131Z,2.59
2018-12-12T19:16:04.429Z,2.50
2018-12-12T19:18:32.542Z,2.37
2018-12-12T19:21:00.797Z,2.29
2018-12-12T19:23:29.549Z,2.27
2018-12-12T19:25:57.741Z,2.23
2018-12-12T19:28:25.949Z,2.24
2018-12-12T19:30:54.157Z,2.20
2018-12-12T19:33:22.321Z,2.12
2018-12-12T19:35:50.613Z,2.10
2018-12-12T19:38:18.761Z,2.13
2018-12-12T19:40:46.958Z,2.10
2018-12-12T19:43:15.141Z,2.02
2018-12-12T19:45:43.376Z,2.00
2018-12-12T19:48:11.657Z,2.04
2018-12-12T19:50:39.843Z,2.08
2018-12-12T19:53:08.027Z,2.06
2018-12-12T19:55:36.219Z,2.25
2018-12-12T19:58:04.393Z,2.41
2018-12-12T20:00:32.546Z,2.50
2018-12-12T20:03:00.725Z,2.66
2018-12-12T20:05:28.840Z,2.82
2018-12-12T20:07:57.037Z,2.83
2018-12-12T20:13:15.001Z,2.88
2018-12-12T20:15:44.348Z,2.94
2018-12-12T20:18:12.730Z,3.07
2018-12-12T20:20:40.983Z,3.23
2018-12-12T20:23:09.359Z,3.27
2018-12-12T20:25:37.621Z,3.22
2018-12-12T20:28:06.721Z,3.21
2018-12-12T20:30:35.496Z,3.23
2018-12-12T20:33:04.212Z,3.40
2018-12-12T20:35:32.341Z,3.31
2018-12-12T20:38:00.560Z,3.23
2018-12-12T20:40:28.706Z,3.22
2018-12-12T20:42:56.937Z,3.17
2018-12-12T20:45:25.094Z,3.22
2018-12-12T20:47:53.200Z,3.08
2018-12-12T20:50:21.299Z,3.14
2018-12-12T20:52:49.486Z,2.91
2018-12-12T20:55:17.692Z,2.74
2018-12-12T20:57:45.921Z,2.62
2018-12-12T21:00:14.321Z,2.64
2018-12-12T21:02:42.439Z,2.58
2018-12-12T21:05:10.650Z,2.61
2018-12-12T21:07:38.753Z,2.66
2018-12-12T21:10:07.392Z,2.74
2018-12-12T21:12:35.495Z,2.75
2018-12-12T21:15:06.593Z,2.82
2018-12-12T21:17:34.965Z,2.86
2018-12-12T21:20:04.397Z,2.88
2018-12-12T21:22:32.527Z,3.01
2018-12-12T21:25:00.643Z,2.99
2018-12-12T21:27:28.829Z,3.00
2018-12-12T21:29:57.049Z,3.06
2018-12-12T21:32:25.363Z,2.90
2018-12-12T21:34:53.610Z,2.94
2018-12-12T21:37:21.712Z,2.93
2018-12-12T21:39:49.849Z,2.98
2018-12-12T21:42:18.038Z,2.79
2018-12-12T21:44:46.455Z,2.72
2018-12-12T21:47:14.781Z,2.52
2018-12-12T21:49:42.949Z,2.65
2018-12-12T21:52:11.189Z,2.65
2018-12-12T21:54:39.383Z,2.52
2018-12-12T21:57:08.573Z,2.58
2018-12-12T21:59:36.779Z,2.57
2018-12-12T22:02:05.234Z,2.69
2018-12-12T22:04:37.305Z,2.80
2018-12-12T22:07:03.895Z,2.77
2018-12-12T22:09:32.088Z,2.86
2018-12-12T22:12:00.185Z,2.82
2018-12-12T22:14:28.615Z,2.77
2018-12-12T22:16:56.751Z,2.74
2018-12-12T22:19:24.881Z,2.75
2018-12-12T22:21:53.019Z,2.70
2018-12-12T22:24:21.162Z,2.79
2018-12-12T22:26:49.285Z,2.69
2018-12-12T22:29:17.427Z,2.63
2018-12-12T22:31:45.598Z,2.73
2018-12-12T22:34:13.728Z,2.67
2018-12-12T22:36:42.549Z,2.72
2018-12-12T22:39:10.725Z,2.79
2018-12-12T22:41:38.891Z,2.74
2018-12-12T22:44:07.043Z,2.63
2018-12-12T22:46:35.241Z,2.58
2018-12-12T22:49:03.389Z,2.57
2018-12-12T22:51:31.539Z,2.60
2018-12-12T22:53:59.853Z,2.56
2018-12-12T22:56:28.117Z,2.48
2018-12-12T22:58:57.670Z,2.34
2018-12-12T23:01:26.867Z,2.55
2018-12-12T23:03:56.059Z,2.54
2018-12-12T23:06:24.160Z,2.43
2018-12-12T23:08:52.261Z,2.33
2018-12-12T23:11:20.570Z,2.12
2018-12-12T23:13:48.890Z,2.16
2018-12-12T23:16:17.363Z,2.30
2018-12-12T23:18:45.499Z,2.29
2018-12-12T23:21:13.686Z,2.20
2018-12-12T23:23:41.838Z,2.34
2018-12-12T23:26:09.948Z,2.38
2018-12-12T23:28:38.115Z,2.25
2018-12-12T23:31:06.237Z,2.12
2018-12-12T23:33:34.390Z,2.16
2018-12-12T23:36:02.669Z,2.09
2018-12-12T23:38:30.786Z,2.06
2018-12-12T23:40:58.934Z,2.19
2018-12-12T23:43:27.069Z,2.13
2018-12-12T23:45:55.288Z,2.18
2018-12-12T23:48:23.414Z,2.08
2018-12-12T23:50:51.533Z,2.14
2018-12-12T23:53:19.642Z,2.11
2018-12-12T23:55:47.993Z,1.96
2018-12-12T23:58:16.112Z,1.97
